sensor_id;sensor_type;location;lat;lon;timestamp;pressure;altitude;pressure_sealevel;temperature;humidity
11448;BME280;43755;49.736;8.734;2023-10-08T00:00:17;98631.69;;;16.35;100.00
11448;BME280;43755;49.736;8.734;2023-10-08T00:02:33;98633.56;;;16.33;100.00
11448;BME280;43755;49.736;8.734;2023-10-08T00:04:34;98626.06;;;16.24;100.00
11448;BME280;43755;49.736;8.734;2023-10-08T00:06:37;98623.16;;;16.29;100.00
11448;BME280;43755;49.736;8.734;2023-10-08T00:08:40;98621.41;;;16.28;100.00
11448;BME280;43755;49.736;8.734;2023-10-08T00:10:42;98635.81;;;16.25;100.00
11448;BME280;43755;49.736;8.734;2023-10-08T00:12:44;98622.09;;;16.16;100.00
11448;BME280;43755;49.736;8.734;2023-10-08T00:14:48;98631.50;;;16.07;100.00
11448;BME280;43755;49.736;8.734;2023-10-08T00:16:53;98625.28;;;16.07;100.00
11448;BME280;43755;49.736;8.734;2023-10-08T00:18:54;98618.16;;;16.07;100.00
11448;BME280;43755;49.736;8.734;2023-10-08T00:21:00;98616.06;;;16.12;100.00
11448;BME280;43755;49.736;8.734;2023-10-08T00:23:16;98618.50;;;16.17;100.00
11448;BME280;43755;49.736;8.734;2023-10-08T00:25:19;98629.00;;;16.20;100.00
11448;BME280;43755;49.736;8.734;2023-10-08T00:27:20;98625.91;;;16.27;100.00
11448;BME280;43755;49.736;8.734;2023-10-08T00:29:22;98625.38;;;16.21;100.00
11448;BME280;43755;49.736;8.734;2023-10-08T00:31:25;98621.00;;;16.20;100.00
11448;BME280;43755;49.736;8.734;2023-10-08T00:33:31;98625.28;;;16.22;100.00
11448;BME280;43755;49.736;8.734;2023-10-08T00:35:37;98622.88;;;16.18;100.00
11448;BME280;43755;49.736;8.734;2023-10-08T00:37:37;98624.50;;;16.20;100.00
11448;BME280;43755;49.736;8.734;2023-10-08T00:39:40;98621.16;;;16.17;100.00
11448;BME280;43755;49.736;8.734;2023-10-08T00:41:43;98625.13;;;16.25;100.00
11448;BME280;43755;49.736;8.734;2023-10-08T00:43:44;98626.59;;;16.31;100.00
11448;BME280;43755;49.736;8.734;2023-10-08T00:45:46;98629.34;;;16.29;100.00
11448;BME280;43755;49.736;8.734;2023-10-08T00:47:50;98639.16;;;16.29;100.00
11448;BME280;43755;49.736;8.734;2023-10-08T00:49:56;98638.56;;;16.24;100.00
11448;BME280;43755;49.736;8.734;2023-10-08T00:52:09;98630.03;;;16.17;100.00
11448;BME280;43755;49.736;8.734;2023-10-08T00:54:27;98622.34;;;16.11;100.00
11448;BME280;43755;49.736;8.734;2023-10-08T00:56:35;98631.22;;;16.12;100.00
11448;BME280;43755;49.736;8.734;2023-10-08T00:58:51;98637.78;;;16.06;100.00
11448;BME280;43755;49.736;8.734;2023-10-08T01:00:54;98622.97;;;16.01;100.00
11448;BME280;43755;49.736;8.734;2023-10-08T01:02:59;98622.97;;;16.01;100.00
11448;BME280;43755;49.736;8.734;2023-10-08T01:05:02;98621.91;;;16.03;100.00
11448;BME280;43755;49.736;8.734;2023-10-08T01:07:03;98623.81;;;16.01;100.00
11448;BME280;43755;49.736;8.734;2023-10-08T01:09:13;98619.41;;;16.00;100.00
11448;BME280;43755;49.736;8.734;2023-10-08T01:11:20;98621.31;;;15.98;100.00
11448;BME280;43755;49.736;8.734;2023-10-08T01:13:32;98610.47;;;16.01;100.00
11448;BME280;43755;49.736;8.734;2023-10-08T01:15:44;98615.81;;;16.01;100.00
11448;BME280;43755;49.736;8.734;2023-10-08T01:17:51;98609.69;;;15.99;100.00
11448;BME280;43755;49.736;8.734;2023-10-08T01:19:58;98607.09;;;15.97;100.00
11448;BME280;43755;49.736;8.734;2023-10-08T01:22:21;98598.50;;;15.92;100.00
11448;BME280;43755;49.736;8.734;2023-10-08T01:24:22;98599.53;;;15.90;100.00
11448;BME280;43755;49.736;8.734;2023-10-08T01:26:24;98596.94;;;15.88;100.00
11448;BME280;43755;49.736;8.734;2023-10-08T01:28:25;98602.19;;;15.90;100.00
11448;BME280;43755;49.736;8.734;2023-10-08T01:30:29;98596.94;;;15.88;100.00
11448;BME280;43755;49.736;8.734;2023-10-08T01:32:35;98590.66;;;15.89;100.00
11448;BME280;43755;49.736;8.734;2023-10-08T01:34:36;98590.66;;;15.89;100.00
11448;BME280;43755;49.736;8.734;2023-10-08T01:36:39;98594.28;;;15.88;100.00
11448;BME280;43755;49.736;8.734;2023-10-08T01:38:45;98597.94;;;15.86;100.00
11448;BME280;43755;49.736;8.734;2023-10-08T01:40:49;98593.13;;;15.77;100.00
11448;BME280;43755;49.736;8.734;2023-10-08T01:42:51;98586.41;;;15.70;100.00
11448;BME280;43755;49.736;8.734;2023-10-08T01:44:52;98587.94;;;15.74;100.00
11448;BME280;43755;49.736;8.734;2023-10-08T01:46:56;98582.63;;;15.74;100.00
11448;BME280;43755;49.736;8.734;2023-10-08T01:48:58;98589.31;;;15.65;100.00
11448;BME280;43755;49.736;8.734;2023-10-08T01:51:05;98575.38;;;15.60;100.00
11448;BME280;43755;49.736;8.734;2023-10-08T01:53:11;98584.31;;;15.59;100.00
11448;BME280;43755;49.736;8.734;2023-10-08T01:55:16;98579.84;;;15.60;100.00
11448;BME280;43755;49.736;8.734;2023-10-08T01:57:19;98578.19;;;15.57;100.00
11448;BME280;43755;49.736;8.734;2023-10-08T01:59:20;98568.47;;;15.56;100.00
11448;BME280;43755;49.736;8.734;2023-10-08T02:01:22;98573.56;;;15.61;100.00
11448;BME280;43755;49.736;8.734;2023-10-08T02:03:23;98578.91;;;15.61;100.00
11448;BME280;43755;49.736;8.734;2023-10-08T02:05:25;98573.91;;;15.54;100.00
11448;BME280;43755;49.736;8.734;2023-10-08T02:07:26;98576.47;;;15.56;100.00
11448;BME280;43755;49.736;8.734;2023-10-08T02:09:29;98583.53;;;15.57;100.00
11448;BME280;43755;49.736;8.734;2023-10-08T02:11:41;98586.38;;;15.54;100.00
11448;BME280;43755;49.736;8.734;2023-10-08T02:13:43;98588.41;;;15.49;100.00
11448;BME280;43755;49.736;8.734;2023-10-08T02:15:49;98596.72;;;15.43;100.00
11448;BME280;43755;49.736;8.734;2023-10-08T02:17:51;98604.94;;;15.38;100.00
11448;BME280;43755;49.736;8.734;2023-10-08T02:19:55;98600.78;;;15.33;100.00
11448;BME280;43755;49.736;8.734;2023-10-08T02:21:56;98601.91;;;15.29;100.00
11448;BME280;43755;49.736;8.734;2023-10-08T02:23:58;98602.22;;;15.23;100.00
11448;BME280;43755;49.736;8.734;2023-10-08T02:25:59;98614.75;;;15.21;100.00
11448;BME280;43755;49.736;8.734;2023-10-08T02:28:03;98614.94;;;15.18;100.00
11448;BME280;43755;49.736;8.734;2023-10-08T02:30:05;98611.16;;;15.22;100.00
11448;BME280;43755;49.736;8.734;2023-10-08T02:32:09;98612.50;;;15.13;100.00
11448;BME280;43755;49.736;8.734;2023-10-08T02:34:11;98606.31;;;15.12;100.00
11448;BME280;43755;49.736;8.734;2023-10-08T02:36:13;98614.84;;;15.19;100.00
11448;BME280;43755;49.736;8.734;2023-10-08T02:38:17;98617.53;;;15.19;100.00
11448;BME280;43755;49.736;8.734;2023-10-08T02:40:18;98607.88;;;15.16;100.00
11448;BME280;43755;49.736;8.734;2023-10-08T02:42:26;98619.22;;;15.20;100.00
11448;BME280;43755;49.736;8.734;2023-10-08T02:44:28;98618.28;;;15.21;100.00
11448;BME280;43755;49.736;8.734;2023-10-08T02:46:30;98616.66;;;15.19;100.00
11448;BME280;43755;49.736;8.734;2023-10-08T02:48:33;98614.94;;;15.18;100.00
11448;BME280;43755;49.736;8.734;2023-10-08T02:50:35;98610.06;;;15.08;100.00
11448;BME280;43755;49.736;8.734;2023-10-08T02:52:37;98608.44;;;15.06;100.00
11448;BME280;43755;49.736;8.734;2023-10-08T02:54:38;98596.72;;;15.08;100.00
11448;BME280;43755;49.736;8.734;2023-10-08T02:56:40;98601.53;;;15.02;100.00
11448;BME280;43755;49.736;8.734;2023-10-08T02:58:44;98598.00;;;15.01;100.00
11448;BME280;43755;49.736;8.734;2023-10-08T03:00:49;98589.28;;;14.98;100.00
11448;BME280;43755;49.736;8.734;2023-10-08T03:02:49;98591.56;;;14.88;100.00
11448;BME280;43755;49.736;8.734;2023-10-08T03:04:52;98583.66;;;14.87;100.00
11448;BME280;43755;49.736;8.734;2023-10-08T03:06:53;98587.41;;;14.83;100.00
11448;BME280;43755;49.736;8.734;2023-10-08T03:08:54;98581.38;;;14.79;100.00
11448;BME280;43755;49.736;8.734;2023-10-08T03:10:56;98577.38;;;14.70;100.00
11448;BME280;43755;49.736;8.734;2023-10-08T03:13:03;98580.09;;;14.69;100.00
11448;BME280;43755;49.736;8.734;2023-10-08T03:15:08;98575.03;;;14.64;100.00
11448;BME280;43755;49.736;8.734;2023-10-08T03:17:15;98587.94;;;14.55;100.00
11448;BME280;43755;49.736;8.734;2023-10-08T03:19:22;98583.38;;;14.57;100.00
11448;BME280;43755;49.736;8.734;2023-10-08T03:21:24;98583.75;;;14.49;100.00
11448;BME280;43755;49.736;8.734;2023-10-08T03:23:40;98590.03;;;14.48;100.00
11448;BME280;43755;49.736;8.734;2023-10-08T03:25:47;98585.72;;;14.46;100.00
11448;BME280;43755;49.736;8.734;2023-10-08T03:27:56;98588.53;;;14.43;100.00
11448;BME280;43755;49.736;8.734;2023-10-08T03:29:59;98599.47;;;14.37;100.00
11448;BME280;43755;49.736;8.734;2023-10-08T03:32:01;98603.06;;;14.35;100.00
11448;BME280;43755;49.736;8.734;2023-10-08T03:34:07;98610.16;;;14.35;100.00
11448;BME280;43755;49.736;8.734;2023-10-08T03:36:12;98616.41;;;14.34;100.00
11448;BME280;43755;49.736;8.734;2023-10-08T03:38:21;98621.66;;;14.37;100.00
11448;BME280;43755;49.736;8.734;2023-10-08T03:40:28;98622.75;;;14.31;100.00
11448;BME280;43755;49.736;8.734;2023-10-08T03:42:42;98624.69;;;14.28;100.00
11448;BME280;43755;49.736;8.734;2023-10-08T03:44:49;98624.88;;;14.25;100.00
11448;BME280;43755;49.736;8.734;2023-10-08T03:46:52;98613.75;;;14.34;100.00
11448;BME280;43755;49.736;8.734;2023-10-08T03:48:57;98621.91;;;14.31;100.00
11448;BME280;43755;49.736;8.734;2023-10-08T03:51:06;98626.28;;;14.32;100.00
11448;BME280;43755;49.736;8.734;2023-10-08T03:53:11;98638.94;;;14.27;100.00
11448;BME280;43755;49.736;8.734;2023-10-08T03:55:13;98637.16;;;14.27;100.00
11448;BME280;43755;49.736;8.734;2023-10-08T03:57:22;98636.28;;;14.27;100.00
11448;BME280;43755;49.736;8.734;2023-10-08T03:59:41;98643.34;;;14.28;100.00
11448;BME280;43755;49.736;8.734;2023-10-08T04:01:43;98651.97;;;14.33;100.00
11448;BME280;43755;49.736;8.734;2023-10-08T04:03:45;98648.72;;;14.26;100.00
11448;BME280;43755;49.736;8.734;2023-10-08T04:05:58;98656.88;;;14.23;100.00
11448;BME280;43755;49.736;8.734;2023-10-08T04:08:15;98656.06;;;14.21;100.00
11448;BME280;43755;49.736;8.734;2023-10-08T04:10:25;98657.78;;;14.22;100.00
11448;BME280;43755;49.736;8.734;2023-10-08T04:13:00;98664.03;;;14.21;100.00
11448;BME280;43755;49.736;8.734;2023-10-08T04:15:01;98659.53;;;14.23;100.00
11448;BME280;43755;49.736;8.734;2023-10-08T04:17:07;98661.44;;;14.20;100.00
11448;BME280;43755;49.736;8.734;2023-10-08T04:19:10;98645.78;;;14.14;100.00
11448;BME280;43755;49.736;8.734;2023-10-08T04:21:11;98651.03;;;14.15;100.00
11448;BME280;43755;49.736;8.734;2023-10-08T04:23:14;98649.44;;;14.11;100.00
11448;BME280;43755;49.736;8.734;2023-10-08T04:25:20;98656.63;;;14.09;100.00
11448;BME280;43755;49.736;8.734;2023-10-08T04:27:21;98652.19;;;14.10;100.00
11448;BME280;43755;49.736;8.734;2023-10-08T04:29:23;98660.31;;;14.07;100.00
11448;BME280;43755;49.736;8.734;2023-10-08T04:31:26;98656.78;;;14.06;100.00
11448;BME280;43755;49.736;8.734;2023-10-08T04:33:37;98649.44;;;14.11;100.00
11448;BME280;43755;49.736;8.734;2023-10-08T04:35:39;98646.78;;;14.11;100.00
11448;BME280;43755;49.736;8.734;2023-10-08T04:37:48;98641.53;;;14.10;100.00
11448;BME280;43755;49.736;8.734;2023-10-08T04:39:52;98638.75;;;14.13;100.00
11448;BME280;43755;49.736;8.734;2023-10-08T04:42:01;98642.19;;;14.15;100.00
11448;BME280;43755;49.736;8.734;2023-10-08T04:44:11;98638.94;;;14.08;100.00
11448;BME280;43755;49.736;8.734;2023-10-08T04:46:15;98638.75;;;14.13;100.00
11448;BME280;43755;49.736;8.734;2023-10-08T04:48:34;98631.53;;;14.15;100.00
11448;BME280;43755;49.736;8.734;2023-10-08T04:50:37;98619.91;;;14.17;100.00
11448;BME280;43755;49.736;8.734;2023-10-08T04:52:38;98608.59;;;14.31;100.00
11448;BME280;43755;49.736;8.734;2023-10-08T04:54:46;98601.69;;;14.27;100.00
11448;BME280;43755;49.736;8.734;2023-10-08T04:56:51;98598.66;;;14.34;100.00
11448;BME280;43755;49.736;8.734;2023-10-08T04:58:54;98593.41;;;14.33;100.00
11448;BME280;43755;49.736;8.734;2023-10-08T05:00:56;98595.78;;;14.39;100.00
11448;BME280;43755;49.736;8.734;2023-10-08T05:03:00;98593.00;;;14.42;100.00
11448;BME280;43755;49.736;8.734;2023-10-08T05:05:11;98594.88;;;14.40;100.00
11448;BME280;43755;49.736;8.734;2023-10-08T05:07:24;98602.78;;;14.42;100.00
11448;BME280;43755;49.736;8.734;2023-10-08T05:09:44;98621.13;;;14.48;100.00
11448;BME280;43755;49.736;8.734;2023-10-08T05:12:11;98619.63;;;14.42;100.00
11448;BME280;43755;49.736;8.734;2023-10-08T05:14:31;98623.06;;;14.44;100.00
11448;BME280;43755;49.736;8.734;2023-10-08T05:16:38;98623.97;;;14.43;100.00
11448;BME280;43755;49.736;8.734;2023-10-08T05:19:00;98614.38;;;14.41;100.00
11448;BME280;43755;49.736;8.734;2023-10-08T05:21:26;98627.06;;;14.34;100.00
11448;BME280;43755;49.736;8.734;2023-10-08T05:23:28;98638.94;;;14.27;100.00
11448;BME280;43755;49.736;8.734;2023-10-08T05:25:48;98640.75;;;14.08;100.00
11448;BME280;43755;49.736;8.734;2023-10-08T05:28:09;98642.91;;;14.00;100.00
11448;BME280;43755;49.736;8.734;2023-10-08T05:30:12;98643.72;;;14.02;100.00
11448;BME280;43755;49.736;8.734;2023-10-08T05:32:17;98640.31;;;13.98;100.00
11448;BME280;43755;49.736;8.734;2023-10-08T05:34:39;98637.72;;;13.97;100.00
11448;BME280;43755;49.736;8.734;2023-10-08T05:36:56;98641.25;;;13.97;100.00
11448;BME280;43755;49.736;8.734;2023-10-08T05:39:31;98634.88;;;14.01;100.00
11448;BME280;43755;49.736;8.734;2023-10-08T05:41:40;98635.72;;;14.02;100.00
11448;BME280;43755;49.736;8.734;2023-10-08T05:43:51;98650.38;;;14.10;100.00
11448;BME280;43755;49.736;8.734;2023-10-08T05:46:13;98643.91;;;14.16;100.00
11448;BME280;43755;49.736;8.734;2023-10-08T05:48:39;98638.59;;;14.16;100.00
11448;BME280;43755;49.736;8.734;2023-10-08T05:50:45;98636.66;;;14.19;100.00
11448;BME280;43755;49.736;8.734;2023-10-08T05:53:13;98640.84;;;14.25;100.00
11448;BME280;43755;49.736;8.734;2023-10-08T05:55:30;98632.16;;;14.20;100.00
11448;BME280;43755;49.736;8.734;2023-10-08T05:57:36;98623.84;;;14.27;100.00
11448;BME280;43755;49.736;8.734;2023-10-08T05:59:40;98628.06;;;14.31;100.00
11448;BME280;43755;49.736;8.734;2023-10-08T06:01:54;98621.75;;;14.34;100.00
11448;BME280;43755;49.736;8.734;2023-10-08T06:04:06;98621.97;;;14.29;100.00
11448;BME280;43755;49.736;8.734;2023-10-08T06:06:21;98624.69;;;14.28;100.00
11448;BME280;43755;49.736;8.734;2023-10-08T06:08:37;98607.16;;;14.24;100.00
11448;BME280;43755;49.736;8.734;2023-10-08T06:10:52;98609.75;;;14.25;100.00
11448;BME280;43755;49.736;8.734;2023-10-08T06:12:58;98610.59;;;14.26;100.00
11448;BME280;43755;49.736;8.734;2023-10-08T06:15:02;98608.09;;;14.23;100.00
11448;BME280;43755;49.736;8.734;2023-10-08T06:17:08;98603.63;;;14.23;100.00
11448;BME280;43755;49.736;8.734;2023-10-08T06:19:24;98606.78;;;14.31;100.00
11448;BME280;43755;49.736;8.734;2023-10-08T06:21:25;98608.66;;;14.29;100.00
11448;BME280;43755;49.736;8.734;2023-10-08T06:23:28;98608.50;;;14.32;100.00
11448;BME280;43755;49.736;8.734;2023-10-08T06:25:32;98611.09;;;14.34;100.00
11448;BME280;43755;49.736;8.734;2023-10-08T06:27:33;98607.56;;;14.33;100.00
11448;BME280;43755;49.736;8.734;2023-10-08T06:29:34;98611.84;;;14.38;100.00
11448;BME280;43755;49.736;8.734;2023-10-08T06:31:35;98608.19;;;14.40;100.00
11448;BME280;43755;49.736;8.734;2023-10-08T06:33:40;98606.09;;;14.47;100.00
11448;BME280;43755;49.736;8.734;2023-10-08T06:35:41;98620.25;;;14.47;100.00
11448;BME280;43755;49.736;8.734;2023-10-08T06:37:45;98640.31;;;14.54;100.00
11448;BME280;43755;49.736;8.734;2023-10-08T06:39:45;98651.69;;;14.58;100.00
11448;BME280;43755;49.736;8.734;2023-10-08T06:41:48;98673.56;;;14.64;100.00
11448;BME280;43755;49.736;8.734;2023-10-08T06:43:49;98691.03;;;14.70;100.00
11448;BME280;43755;49.736;8.734;2023-10-08T06:46:03;98709.09;;;14.63;100.00
11448;BME280;43755;49.736;8.734;2023-10-08T06:48:07;98705.50;;;14.64;100.00
11448;BME280;43755;49.736;8.734;2023-10-08T06:50:10;98713.50;;;14.64;100.00
11448;BME280;43755;49.736;8.734;2023-10-08T06:52:15;98718.59;;;14.69;100.00
11448;BME280;43755;49.736;8.734;2023-10-08T06:54:17;98718.59;;;14.69;100.00
11448;BME280;43755;49.736;8.734;2023-10-08T06:56:18;98719.25;;;14.74;100.00
11448;BME280;43755;49.736;8.734;2023-10-08T06:58:20;98728.59;;;14.83;100.00
11448;BME280;43755;49.736;8.734;2023-10-08T07:00:21;98727.72;;;14.82;100.00
11448;BME280;43755;49.736;8.734;2023-10-08T07:02:38;98732.03;;;14.85;100.00
11448;BME280;43755;49.736;8.734;2023-10-08T07:04:40;98710.34;;;14.92;100.00
11448;BME280;43755;49.736;8.734;2023-10-08T07:06:45;98701.19;;;14.98;100.00
11448;BME280;43755;49.736;8.734;2023-10-08T07:08:48;98703.00;;;15.14;100.00
11448;BME280;43755;49.736;8.734;2023-10-08T07:10:55;98728.16;;;15.09;100.00
11448;BME280;43755;49.736;8.734;2023-10-08T07:12:56;98729.22;;;15.24;100.00
11448;BME280;43755;49.736;8.734;2023-10-08T07:14:57;98733.47;;;15.28;100.00
11448;BME280;43755;49.736;8.734;2023-10-08T07:17:00;98730.56;;;15.32;100.00
11448;BME280;43755;49.736;8.734;2023-10-08T07:19:01;98739.03;;;15.40;100.00
11448;BME280;43755;49.736;8.734;2023-10-08T07:21:05;98732.41;;;15.49;100.00
11448;BME280;43755;49.736;8.734;2023-10-08T07:23:13;98725.03;;;15.54;100.00
11448;BME280;43755;49.736;8.734;2023-10-08T07:25:20;98724.88;;;15.57;100.00
11448;BME280;43755;49.736;8.734;2023-10-08T07:27:22;98719.41;;;15.60;100.00
11448;BME280;43755;49.736;8.734;2023-10-08T07:29:30;98724.75;;;15.60;100.00
11448;BME280;43755;49.736;8.734;2023-10-08T07:31:33;98719.94;;;15.67;100.00
11448;BME280;43755;49.736;8.734;2023-10-08T07:33:36;98709.03;;;15.71;100.00
11448;BME280;43755;49.736;8.734;2023-10-08T07:35:37;98729.00;;;15.80;100.00
11448;BME280;43755;49.736;8.734;2023-10-08T07:37:41;98739.47;;;15.84;100.00
11448;BME280;43755;49.736;8.734;2023-10-08T07:39:44;98735.50;;;15.91;100.00
11448;BME280;43755;49.736;8.734;2023-10-08T07:41:46;98738.66;;;16.00;100.00
11448;BME280;43755;49.736;8.734;2023-10-08T07:43:49;98750.22;;;16.16;100.00
11448;BME280;43755;49.736;8.734;2023-10-08T07:45:55;98747.09;;;16.25;100.00
11448;BME280;43755;49.736;8.734;2023-10-08T07:47:57;98748.44;;;16.32;100.00
11448;BME280;43755;49.736;8.734;2023-10-08T07:49:58;98756.31;;;16.35;100.00
11448;BME280;43755;49.736;8.734;2023-10-08T07:52:00;98766.81;;;16.38;100.00
11448;BME280;43755;49.736;8.734;2023-10-08T07:54:01;98755.19;;;16.39;100.00
11448;BME280;43755;49.736;8.734;2023-10-08T07:56:05;98757.25;;;16.34;100.00
11448;BME280;43755;49.736;8.734;2023-10-08T07:58:08;98746.25;;;16.40;100.00
11448;BME280;43755;49.736;8.734;2023-10-08T08:00:11;98748.84;;;16.42;100.00
11448;BME280;43755;49.736;8.734;2023-10-08T08:02:23;98750.97;;;16.35;100.00
11448;BME280;43755;49.736;8.734;2023-10-08T08:04:24;98752.09;;;16.31;100.00
11448;BME280;43755;49.736;8.734;2023-10-08T08:06:33;98756.25;;;16.36;100.00
11448;BME280;43755;49.736;8.734;2023-10-08T08:08:35;98759.44;;;16.43;100.00
11448;BME280;43755;49.736;8.734;2023-10-08T08:10:36;98753.66;;;16.35;100.00
11448;BME280;43755;49.736;8.734;2023-10-08T08:12:41;98739.47;;;16.17;100.00
11448;BME280;43755;49.736;8.734;2023-10-08T08:14:42;98751.16;;;16.15;100.00
11448;BME280;43755;49.736;8.734;2023-10-08T08:16:44;98752.31;;;16.26;100.00
11448;BME280;43755;49.736;8.734;2023-10-08T08:18:49;98758.53;;;16.27;100.00
11448;BME280;43755;49.736;8.734;2023-10-08T08:20:52;98760.25;;;16.28;100.00
11448;BME280;43755;49.736;8.734;2023-10-08T08:22:54;98759.78;;;16.37;100.00
11448;BME280;43755;49.736;8.734;2023-10-08T08:24:57;98757.28;;;16.50;100.00
11448;BME280;43755;49.736;8.734;2023-10-08T08:27:05;98757.03;;;16.54;100.00
11448;BME280;43755;49.736;8.734;2023-10-08T08:29:12;98758.94;;;16.52;100.00
11448;BME280;43755;49.736;8.734;2023-10-08T08:31:15;98759.88;;;16.51;100.00
11448;BME280;43755;49.736;8.734;2023-10-08T08:33:18;98742.63;;;16.57;100.00
11448;BME280;43755;49.736;8.734;2023-10-08T08:35:23;98741.03;;;16.54;100.00
11448;BME280;43755;49.736;8.734;2023-10-08T08:37:24;98735.41;;;16.59;100.00
11448;BME280;43755;49.736;8.734;2023-10-08T08:39:29;98747.91;;;16.58;100.00
11448;BME280;43755;49.736;8.734;2023-10-08T08:41:36;98750.56;;;16.58;100.00
11448;BME280;43755;49.736;8.734;2023-10-08T08:43:37;98746.75;;;16.64;100.00
11448;BME280;43755;49.736;8.734;2023-10-08T08:45:45;98748.06;;;16.72;100.00
11448;BME280;43755;49.736;8.734;2023-10-08T08:47:50;98744.59;;;16.86;100.00
11448;BME280;43755;49.736;8.734;2023-10-08T08:49:52;98743.03;;;16.82;100.00
11448;BME280;43755;49.736;8.734;2023-10-08T08:51:56;98757.88;;;16.88;100.00
11448;BME280;43755;49.736;8.734;2023-10-08T08:54:01;98760.28;;;16.92;100.00
11448;BME280;43755;49.736;8.734;2023-10-08T08:56:07;98770.09;;;16.92;100.00
11448;BME280;43755;49.736;8.734;2023-10-08T08:58:09;98770.63;;;16.98;100.00
11448;BME280;43755;49.736;8.734;2023-10-08T09:00:12;98773.28;;;16.98;100.00
11448;BME280;43755;49.736;8.734;2023-10-08T09:02:15;98775.28;;;16.95;100.00
11448;BME280;43755;49.736;8.734;2023-10-08T09:04:27;98772.94;;;17.04;100.00
11448;BME280;43755;49.736;8.734;2023-10-08T09:06:29;98772.34;;;17.15;100.00
11448;BME280;43755;49.736;8.734;2023-10-08T09:08:35;98772.69;;;17.25;100.00
11448;BME280;43755;49.736;8.734;2023-10-08T09:10:37;98767.50;;;17.22;100.00
11448;BME280;43755;49.736;8.734;2023-10-08T09:12:51;98769.84;;;17.12;100.00
11448;BME280;43755;49.736;8.734;2023-10-08T09:14:52;98775.34;;;17.09;100.00
11448;BME280;43755;49.736;8.734;2023-10-08T09:16:55;98769.31;;;17.21;100.00
11448;BME280;43755;49.736;8.734;2023-10-08T09:18:58;98777.16;;;17.24;100.00
11448;BME280;43755;49.736;8.734;2023-10-08T09:21:07;98765.19;;;17.31;100.00
11448;BME280;43755;49.736;8.734;2023-10-08T09:23:11;98766.44;;;17.40;100.00
11448;BME280;43755;49.736;8.734;2023-10-08T09:25:19;98773.16;;;17.63;100.00
11448;BME280;43755;49.736;8.734;2023-10-08T09:27:25;98757.44;;;17.72;100.00
11448;BME280;43755;49.736;8.734;2023-10-08T09:29:27;98768.44;;;17.82;100.00
11448;BME280;43755;49.736;8.734;2023-10-08T09:31:29;98764.06;;;17.95;100.00
11448;BME280;43755;49.736;8.734;2023-10-08T09:33:35;98758.50;;;17.98;100.00
11448;BME280;43755;49.736;8.734;2023-10-08T09:35:38;98776.88;;;17.90;100.00
11448;BME280;43755;49.736;8.734;2023-10-08T09:37:40;98784.41;;;17.97;100.00
11448;BME280;43755;49.736;8.734;2023-10-08T09:39:42;98791.50;;;17.98;100.00
11448;BME280;43755;49.736;8.734;2023-10-08T09:41:46;98792.78;;;18.07;100.00
11448;BME280;43755;49.736;8.734;2023-10-08T09:43:47;98795.72;;;18.02;100.00
11448;BME280;43755;49.736;8.734;2023-10-08T09:45:52;98795.63;;;18.04;100.00
11448;BME280;43755;49.736;8.734;2023-10-08T09:47:55;98802.84;;;18.18;100.00
11448;BME280;43755;49.736;8.734;2023-10-08T09:50:02;98797.06;;;18.10;99.64
11448;BME280;43755;49.736;8.734;2023-10-08T09:52:09;98797.09;;;18.24;100.00
11448;BME280;43755;49.736;8.734;2023-10-08T09:54:18;98794.53;;;18.36;100.00
11448;BME280;43755;49.736;8.734;2023-10-08T09:56:22;98794.66;;;18.49;100.00
11448;BME280;43755;49.736;8.734;2023-10-08T09:58:26;98801.69;;;18.50;100.00
11448;BME280;43755;49.736;8.734;2023-10-08T10:00:29;98794.72;;;18.48;98.60
11448;BME280;43755;49.736;8.734;2023-10-08T10:02:32;98796.59;;;18.61;97.48
11448;BME280;43755;49.736;8.734;2023-10-08T10:04:34;98797.66;;;18.73;97.18
11448;BME280;43755;49.736;8.734;2023-10-08T10:06:35;98791.16;;;19.04;100.00
11448;BME280;43755;49.736;8.734;2023-10-08T10:08:38;98777.66;;;19.05;93.99
11448;BME280;43755;49.736;8.734;2023-10-08T10:10:40;98779.31;;;18.94;93.83
11448;BME280;43755;49.736;8.734;2023-10-08T10:12:45;98780.03;;;19.10;96.57
11448;BME280;43755;49.736;8.734;2023-10-08T10:14:47;98776.66;;;19.20;89.66
11448;BME280;43755;49.736;8.734;2023-10-08T10:17:07;98778.63;;;19.45;91.00
11448;BME280;43755;49.736;8.734;2023-10-08T10:19:16;98782.22;;;19.44;89.70
11448;BME280;43755;49.736;8.734;2023-10-08T10:21:26;98784.75;;;19.47;96.38
11448;BME280;43755;49.736;8.734;2023-10-08T10:23:37;98785.53;;;19.62;94.31
11448;BME280;43755;49.736;8.734;2023-10-08T10:25:40;98785.88;;;19.70;96.67
11448;BME280;43755;49.736;8.734;2023-10-08T10:30:21;98776.88;;;19.71;93.65
11448;BME280;43755;49.736;8.734;2023-10-08T10:32:23;98784.47;;;19.65;91.63
11448;BME280;43755;49.736;8.734;2023-10-08T10:34:27;98774.97;;;19.73;90.98
11448;BME280;43755;49.736;8.734;2023-10-08T10:36:27;98773.28;;;19.85;94.60
11448;BME280;43755;49.736;8.734;2023-10-08T10:38:31;98770.16;;;20.16;90.91
11448;BME280;43755;49.736;8.734;2023-10-08T10:40:35;98769.19;;;20.04;90.35
11448;BME280;43755;49.736;8.734;2023-10-08T10:42:40;98771.34;;;19.99;87.67
11448;BME280;43755;49.736;8.734;2023-10-08T10:44:44;98764.25;;;20.11;90.44
11448;BME280;43755;49.736;8.734;2023-10-08T10:46:45;98772.41;;;20.10;84.71
11448;BME280;43755;49.736;8.734;2023-10-08T10:48:51;98759.84;;;19.97;85.23
11448;BME280;43755;49.736;8.734;2023-10-08T10:51:03;98769.00;;;20.08;86.57
11448;BME280;43755;49.736;8.734;2023-10-08T10:53:10;98764.59;;;20.44;84.62
11448;BME280;43755;49.736;8.734;2023-10-08T10:55:13;98763.44;;;20.49;88.54
11448;BME280;43755;49.736;8.734;2023-10-08T10:57:24;98766.41;;;20.69;85.21
11448;BME280;43755;49.736;8.734;2023-10-08T10:59:27;98774.38;;;20.71;86.13